South Seaville, New Jersey
Current Conditions -  °F | °C
As of 8:35 AM on Saturday 01 Nov 2014 (Local Time) from KWWD Reporting Station
Overcast Overcast  
Wind Chill:   Ceiling: 6000
Heat Index:   Visibility: 10mi
Dew Point:   Wind: 24mph
Humidity: 82%   Direction: 20°NNE
Pressure: 29.69"   Gusts: 30mph
Location:  39.18°N, 74.76°W
Report Text: KWWD 011235Z AUTO 02021G26KT 10SM OVC060 09/06 A2969 RMK AO1 LTG DSNT E P0001
Loading
Personal Weather Stations






























Interactive Weather Map
Tropical Storm Tracking
New forecast layout! Learn more

10-Day Weather Forecast

Advertisements
Track Severe Weather on mobile